sensor_id;sensor_type;location;lat;lon;timestamp;P1;durP1;ratioP1;P2;durP2;ratioP2
14849;SDS011;7517;48.400;11.770;2023-12-29T00:02:17;1.97;;;1.43;;
14849;SDS011;7517;48.400;11.770;2023-12-29T00:04:44;1.57;;;1.30;;
14849;SDS011;7517;48.400;11.770;2023-12-29T00:07:11;1.87;;;1.30;;
14849;SDS011;7517;48.400;11.770;2023-12-29T00:09:38;1.80;;;1.43;;
14849;SDS011;7517;48.400;11.770;2023-12-29T00:12:08;1.53;;;1.43;;
14849;SDS011;7517;48.400;11.770;2023-12-29T00:14:36;3.23;;;1.70;;
14849;SDS011;7517;48.400;11.770;2023-12-29T00:17:04;1.60;;;1.40;;
14849;SDS011;7517;48.400;11.770;2023-12-29T00:19:31;1.87;;;1.60;;
14849;SDS011;7517;48.400;11.770;2023-12-29T00:21:59;5.73;;;1.63;;
14849;SDS011;7517;48.400;11.770;2023-12-29T00:24:28;1.43;;;1.20;;
14849;SDS011;7517;48.400;11.770;2023-12-29T00:26:56;1.70;;;1.10;;
14849;SDS011;7517;48.400;11.770;2023-12-29T00:29:29;1.17;;;1.00;;
14849;SDS011;7517;48.400;11.770;2023-12-29T00:31:58;4.13;;;1.30;;
14849;SDS011;7517;48.400;11.770;2023-12-29T00:34:25;6.77;;;1.93;;
14849;SDS011;7517;48.400;11.770;2023-12-29T00:36:52;1.23;;;1.13;;
14849;SDS011;7517;48.400;11.770;2023-12-29T00:39:20;1.40;;;1.30;;
14849;SDS011;7517;48.400;11.770;2023-12-29T00:41:53;1.83;;;1.20;;
14849;SDS011;7517;48.400;11.770;2023-12-29T00:44:21;1.40;;;1.27;;
14849;SDS011;7517;48.400;11.770;2023-12-29T00:46:50;1.40;;;1.30;;
14849;SDS011;7517;48.400;11.770;2023-12-29T00:49:17;1.70;;;1.43;;
14849;SDS011;7517;48.400;11.770;2023-12-29T00:51:44;1.97;;;1.50;;
14849;SDS011;7517;48.400;11.770;2023-12-29T00:54:14;1.60;;;1.50;;
14849;SDS011;7517;48.400;11.770;2023-12-29T00:56:41;1.93;;;1.30;;
14849;SDS011;7517;48.400;11.770;2023-12-29T00:59:14;1.87;;;1.10;;
14849;SDS011;7517;48.400;11.770;2023-12-29T01:01:42;2.70;;;1.37;;
14849;SDS011;7517;48.400;11.770;2023-12-29T01:04:11;8.00;;;1.60;;
14849;SDS011;7517;48.400;11.770;2023-12-29T01:06:38;2.90;;;1.20;;
14849;SDS011;7517;48.400;11.770;2023-12-29T01:09:05;2.77;;;1.10;;
14849;SDS011;7517;48.400;11.770;2023-12-29T01:11:35;1.30;;;1.20;;
14849;SDS011;7517;48.400;11.770;2023-12-29T01:14:02;1.50;;;1.40;;
14849;SDS011;7517;48.400;11.770;2023-12-29T01:16:30;1.57;;;1.43;;
14849;SDS011;7517;48.400;11.770;2023-12-29T01:18:58;3.40;;;1.60;;
14849;SDS011;7517;48.400;11.770;2023-12-29T01:21:26;4.23;;;2.03;;
14849;SDS011;7517;48.400;11.770;2023-12-29T01:23:53;4.07;;;2.30;;
14849;SDS011;7517;48.400;11.770;2023-12-29T01:26:20;1.80;;;1.70;;
14849;SDS011;7517;48.400;11.770;2023-12-29T01:28:47;1.57;;;1.47;;
14849;SDS011;7517;48.400;11.770;2023-12-29T01:31:14;1.77;;;1.03;;
14849;SDS011;7517;48.400;11.770;2023-12-29T01:33:42;1.40;;;1.30;;
14849;SDS011;7517;48.400;11.770;2023-12-29T01:36:09;2.40;;;1.27;;
14849;SDS011;7517;48.400;11.770;2023-12-29T01:38:45;1.83;;;1.20;;
14849;SDS011;7517;48.400;11.770;2023-12-29T01:41:13;1.60;;;1.23;;
14849;SDS011;7517;48.400;11.770;2023-12-29T01:46:44;1.57;;;1.30;;
14849;SDS011;7517;48.400;11.770;2023-12-29T01:49:13;3.77;;;1.17;;
14849;SDS011;7517;48.400;11.770;2023-12-29T01:51:42;1.40;;;1.30;;
14849;SDS011;7517;48.400;11.770;2023-12-29T01:54:12;1.60;;;1.50;;
14849;SDS011;7517;48.400;11.770;2023-12-29T01:56:39;1.43;;;1.23;;
14849;SDS011;7517;48.400;11.770;2023-12-29T01:59:08;1.87;;;1.23;;
14849;SDS011;7517;48.400;11.770;2023-12-29T02:01:36;2.50;;;1.60;;
14849;SDS011;7517;48.400;11.770;2023-12-29T02:04:05;2.10;;;1.40;;
14849;SDS011;7517;48.400;11.770;2023-12-29T02:06:33;2.90;;;1.47;;
14849;SDS011;7517;48.400;11.770;2023-12-29T02:09:01;1.57;;;1.47;;
14849;SDS011;7517;48.400;11.770;2023-12-29T02:11:31;2.37;;;1.63;;
14849;SDS011;7517;48.400;11.770;2023-12-29T02:13:58;3.53;;;1.40;;
14849;SDS011;7517;48.400;11.770;2023-12-29T02:16:29;1.70;;;1.60;;
14849;SDS011;7517;48.400;11.770;2023-12-29T02:19:22;4.53;;;3.30;;
14849;SDS011;7517;48.400;11.770;2023-12-29T02:22:03;2.80;;;2.53;;
14849;SDS011;7517;48.400;11.770;2023-12-29T02:24:32;5.53;;;2.90;;
14849;SDS011;7517;48.400;11.770;2023-12-29T02:27:05;3.23;;;2.07;;
14849;SDS011;7517;48.400;11.770;2023-12-29T02:29:45;4.73;;;1.50;;
14849;SDS011;7517;48.400;11.770;2023-12-29T02:32:26;2.07;;;1.60;;
14849;SDS011;7517;48.400;11.770;2023-12-29T02:34:56;3.17;;;1.80;;
14849;SDS011;7517;48.400;11.770;2023-12-29T02:37:26;1.73;;;1.40;;
14849;SDS011;7517;48.400;11.770;2023-12-29T02:39:55;1.77;;;1.57;;
14849;SDS011;7517;48.400;11.770;2023-12-29T02:42:27;3.37;;;1.50;;
14849;SDS011;7517;48.400;11.770;2023-12-29T02:44:54;1.53;;;1.43;;
14849;SDS011;7517;48.400;11.770;2023-12-29T02:47:21;2.00;;;1.47;;
14849;SDS011;7517;48.400;11.770;2023-12-29T02:49:48;2.23;;;1.43;;
14849;SDS011;7517;48.400;11.770;2023-12-29T02:52:16;1.47;;;1.37;;
14849;SDS011;7517;48.400;11.770;2023-12-29T02:54:43;7.37;;;1.60;;
14849;SDS011;7517;48.400;11.770;2023-12-29T02:57:10;1.73;;;1.60;;
14849;SDS011;7517;48.400;11.770;2023-12-29T02:59:38;2.00;;;1.30;;
14849;SDS011;7517;48.400;11.770;2023-12-29T03:02:05;1.70;;;1.50;;
14849;SDS011;7517;48.400;11.770;2023-12-29T03:04:32;3.83;;;1.67;;
14849;SDS011;7517;48.400;11.770;2023-12-29T03:07:00;2.50;;;1.53;;
14849;SDS011;7517;48.400;11.770;2023-12-29T03:09:27;4.13;;;1.50;;
14849;SDS011;7517;48.400;11.770;2023-12-29T03:11:54;1.53;;;1.43;;
14849;SDS011;7517;48.400;11.770;2023-12-29T03:14:21;2.40;;;1.47;;
14849;SDS011;7517;48.400;11.770;2023-12-29T03:16:49;2.03;;;1.20;;
14849;SDS011;7517;48.400;11.770;2023-12-29T03:19:17;5.57;;;1.80;;
14849;SDS011;7517;48.400;11.770;2023-12-29T03:21:44;2.60;;;1.33;;
14849;SDS011;7517;48.400;11.770;2023-12-29T03:24:11;4.90;;;1.43;;
14849;SDS011;7517;48.400;11.770;2023-12-29T03:26:38;1.60;;;1.27;;
14849;SDS011;7517;48.400;11.770;2023-12-29T03:29:06;1.40;;;1.30;;
14849;SDS011;7517;48.400;11.770;2023-12-29T03:31:33;2.40;;;1.30;;
14849;SDS011;7517;48.400;11.770;2023-12-29T03:34:02;2.03;;;1.50;;
14849;SDS011;7517;48.400;11.770;2023-12-29T03:36:29;3.97;;;1.70;;
14849;SDS011;7517;48.400;11.770;2023-12-29T03:38:56;1.93;;;1.47;;
14849;SDS011;7517;48.400;11.770;2023-12-29T03:41:23;3.10;;;1.50;;
14849;SDS011;7517;48.400;11.770;2023-12-29T03:43:50;4.20;;;1.80;;
14849;SDS011;7517;48.400;11.770;2023-12-29T03:46:18;4.57;;;1.80;;
14849;SDS011;7517;48.400;11.770;2023-12-29T03:48:47;1.90;;;1.30;;
14849;SDS011;7517;48.400;11.770;2023-12-29T03:51:16;4.47;;;1.50;;
14849;SDS011;7517;48.400;11.770;2023-12-29T03:53:45;4.50;;;1.57;;
14849;SDS011;7517;48.400;11.770;2023-12-29T03:56:13;4.60;;;1.70;;
14849;SDS011;7517;48.400;11.770;2023-12-29T03:58:41;1.60;;;1.50;;
14849;SDS011;7517;48.400;11.770;2023-12-29T04:01:09;1.97;;;1.40;;
14849;SDS011;7517;48.400;11.770;2023-12-29T04:03:47;2.90;;;1.60;;
14849;SDS011;7517;48.400;11.770;2023-12-29T04:06:16;1.80;;;1.60;;
14849;SDS011;7517;48.400;11.770;2023-12-29T04:08:43;3.73;;;1.70;;
14849;SDS011;7517;48.400;11.770;2023-12-29T04:11:10;1.83;;;1.60;;
14849;SDS011;7517;48.400;11.770;2023-12-29T04:13:38;4.30;;;1.60;;
14849;SDS011;7517;48.400;11.770;2023-12-29T04:16:05;4.23;;;1.70;;
14849;SDS011;7517;48.400;11.770;2023-12-29T04:18:32;4.17;;;1.40;;
14849;SDS011;7517;48.400;11.770;2023-12-29T04:20:59;2.13;;;1.50;;
14849;SDS011;7517;48.400;11.770;2023-12-29T04:23:28;3.23;;;1.60;;
14849;SDS011;7517;48.400;11.770;2023-12-29T04:25:55;2.47;;;1.80;;
14849;SDS011;7517;48.400;11.770;2023-12-29T04:28:23;2.27;;;1.77;;
14849;SDS011;7517;48.400;11.770;2023-12-29T04:30:50;3.03;;;1.57;;
14849;SDS011;7517;48.400;11.770;2023-12-29T04:33:17;2.77;;;1.30;;
14849;SDS011;7517;48.400;11.770;2023-12-29T04:35:44;1.60;;;1.50;;
14849;SDS011;7517;48.400;11.770;2023-12-29T04:38:13;2.80;;;1.60;;
14849;SDS011;7517;48.400;11.770;2023-12-29T04:40:46;2.50;;;1.60;;
14849;SDS011;7517;48.400;11.770;2023-12-29T04:43:13;1.90;;;1.57;;
14849;SDS011;7517;48.400;11.770;2023-12-29T04:45:41;1.80;;;1.70;;
14849;SDS011;7517;48.400;11.770;2023-12-29T04:48:08;1.40;;;1.30;;
14849;SDS011;7517;48.400;11.770;2023-12-29T04:50:35;3.60;;;1.63;;
14849;SDS011;7517;48.400;11.770;2023-12-29T04:53:08;4.53;;;1.90;;
14849;SDS011;7517;48.400;11.770;2023-12-29T04:55:35;3.33;;;1.57;;
14849;SDS011;7517;48.400;11.770;2023-12-29T04:58:04;2.30;;;1.50;;
14849;SDS011;7517;48.400;11.770;2023-12-29T05:00:31;4.00;;;1.90;;
14849;SDS011;7517;48.400;11.770;2023-12-29T05:02:58;1.90;;;1.77;;
14849;SDS011;7517;48.400;11.770;2023-12-29T05:05:26;2.13;;;1.57;;
14849;SDS011;7517;48.400;11.770;2023-12-29T05:07:54;2.40;;;2.00;;
14849;SDS011;7517;48.400;11.770;2023-12-29T05:10:21;1.43;;;1.30;;
14849;SDS011;7517;48.400;11.770;2023-12-29T05:12:48;3.20;;;1.63;;
14849;SDS011;7517;48.400;11.770;2023-12-29T05:15:16;1.90;;;1.57;;
14849;SDS011;7517;48.400;11.770;2023-12-29T05:17:44;1.40;;;1.30;;
14849;SDS011;7517;48.400;11.770;2023-12-29T05:20:11;2.47;;;1.07;;
14849;SDS011;7517;48.400;11.770;2023-12-29T05:22:38;3.03;;;1.40;;
14849;SDS011;7517;48.400;11.770;2023-12-29T05:25:06;3.87;;;1.43;;
14849;SDS011;7517;48.400;11.770;2023-12-29T05:27:34;2.80;;;1.47;;
14849;SDS011;7517;48.400;11.770;2023-12-29T05:30:01;1.43;;;1.33;;
14849;SDS011;7517;48.400;11.770;2023-12-29T05:32:30;1.40;;;1.30;;
14849;SDS011;7517;48.400;11.770;2023-12-29T05:34:57;1.27;;;1.17;;
14849;SDS011;7517;48.400;11.770;2023-12-29T05:37:24;1.67;;;1.40;;
14849;SDS011;7517;48.400;11.770;2023-12-29T05:39:51;1.53;;;1.43;;
14849;SDS011;7517;48.400;11.770;2023-12-29T05:42:19;2.60;;;1.30;;
14849;SDS011;7517;48.400;11.770;2023-12-29T05:44:46;1.70;;;1.60;;
14849;SDS011;7517;48.400;11.770;2023-12-29T05:47:13;1.57;;;1.43;;
14849;SDS011;7517;48.400;11.770;2023-12-29T05:49:43;1.67;;;1.57;;
14849;SDS011;7517;48.400;11.770;2023-12-29T05:52:10;3.43;;;1.47;;
14849;SDS011;7517;48.400;11.770;2023-12-29T05:54:40;2.77;;;1.37;;
14849;SDS011;7517;48.400;11.770;2023-12-29T05:57:08;1.53;;;1.43;;
14849;SDS011;7517;48.400;11.770;2023-12-29T05:59:35;1.77;;;1.63;;
14849;SDS011;7517;48.400;11.770;2023-12-29T06:02:03;1.40;;;1.30;;
14849;SDS011;7517;48.400;11.770;2023-12-29T06:04:30;1.50;;;1.40;;
14849;SDS011;7517;48.400;11.770;2023-12-29T06:06:59;1.97;;;1.40;;
14849;SDS011;7517;48.400;11.770;2023-12-29T06:09:26;1.83;;;1.50;;
14849;SDS011;7517;48.400;11.770;2023-12-29T06:11:55;2.57;;;1.63;;
14849;SDS011;7517;48.400;11.770;2023-12-29T06:14:22;3.10;;;1.67;;
14849;SDS011;7517;48.400;11.770;2023-12-29T06:16:49;2.47;;;1.33;;
14849;SDS011;7517;48.400;11.770;2023-12-29T06:19:18;2.77;;;1.60;;
14849;SDS011;7517;48.400;11.770;2023-12-29T06:21:45;2.90;;;1.57;;
14849;SDS011;7517;48.400;11.770;2023-12-29T06:24:14;1.57;;;1.47;;
14849;SDS011;7517;48.400;11.770;2023-12-29T06:26:41;1.40;;;1.30;;
14849;SDS011;7517;48.400;11.770;2023-12-29T06:29:09;1.73;;;1.40;;
14849;SDS011;7517;48.400;11.770;2023-12-29T06:31:39;1.60;;;1.50;;
14849;SDS011;7517;48.400;11.770;2023-12-29T06:34:07;1.40;;;1.30;;
14849;SDS011;7517;48.400;11.770;2023-12-29T06:36:35;1.43;;;1.33;;
14849;SDS011;7517;48.400;11.770;2023-12-29T06:39:02;1.30;;;1.20;;
14849;SDS011;7517;48.400;11.770;2023-12-29T06:41:31;1.53;;;1.27;;
14849;SDS011;7517;48.400;11.770;2023-12-29T06:43:58;1.50;;;1.27;;
14849;SDS011;7517;48.400;11.770;2023-12-29T06:46:25;2.20;;;1.33;;
14849;SDS011;7517;48.400;11.770;2023-12-29T06:48:53;3.40;;;1.83;;
14849;SDS011;7517;48.400;11.770;2023-12-29T06:51:19;1.43;;;1.33;;
14849;SDS011;7517;48.400;11.770;2023-12-29T06:53:48;2.00;;;1.30;;
14849;SDS011;7517;48.400;11.770;2023-12-29T06:56:15;2.93;;;1.97;;
14849;SDS011;7517;48.400;11.770;2023-12-29T06:58:44;1.87;;;1.43;;
14849;SDS011;7517;48.400;11.770;2023-12-29T07:01:12;1.50;;;1.40;;
14849;SDS011;7517;48.400;11.770;2023-12-29T07:03:41;1.90;;;1.50;;
14849;SDS011;7517;48.400;11.770;2023-12-29T07:06:09;2.20;;;1.43;;
14849;SDS011;7517;48.400;11.770;2023-12-29T07:08:36;1.47;;;1.37;;
14849;SDS011;7517;48.400;11.770;2023-12-29T07:11:04;2.57;;;1.63;;
14849;SDS011;7517;48.400;11.770;2023-12-29T07:13:36;2.00;;;1.43;;
14849;SDS011;7517;48.400;11.770;2023-12-29T07:16:05;2.13;;;1.50;;
14849;SDS011;7517;48.400;11.770;2023-12-29T07:18:32;1.50;;;1.40;;
14849;SDS011;7517;48.400;11.770;2023-12-29T07:21:00;1.50;;;1.40;;
14849;SDS011;7517;48.400;11.770;2023-12-29T07:23:27;2.90;;;1.57;;
14849;SDS011;7517;48.400;11.770;2023-12-29T07:25:54;1.83;;;1.70;;
14849;SDS011;7517;48.400;11.770;2023-12-29T07:28:22;1.50;;;1.40;;
14849;SDS011;7517;48.400;11.770;2023-12-29T07:30:49;1.30;;;1.20;;
14849;SDS011;7517;48.400;11.770;2023-12-29T07:33:18;1.70;;;1.60;;
14849;SDS011;7517;48.400;11.770;2023-12-29T07:35:45;1.67;;;1.40;;
14849;SDS011;7517;48.400;11.770;2023-12-29T07:38:12;1.40;;;1.30;;
14849;SDS011;7517;48.400;11.770;2023-12-29T07:40:40;1.50;;;1.40;;
14849;SDS011;7517;48.400;11.770;2023-12-29T07:43:07;2.20;;;2.00;;
14849;SDS011;7517;48.400;11.770;2023-12-29T07:45:34;1.70;;;1.47;;
14849;SDS011;7517;48.400;11.770;2023-12-29T07:48:02;2.13;;;1.60;;
14849;SDS011;7517;48.400;11.770;2023-12-29T07:50:32;2.43;;;1.37;;
14849;SDS011;7517;48.400;11.770;2023-12-29T07:53:00;2.43;;;1.80;;
14849;SDS011;7517;48.400;11.770;2023-12-29T07:55:28;1.53;;;1.43;;
14849;SDS011;7517;48.400;11.770;2023-12-29T07:57:55;2.53;;;1.40;;
14849;SDS011;7517;48.400;11.770;2023-12-29T08:00:22;1.53;;;1.43;;
14849;SDS011;7517;48.400;11.770;2023-12-29T08:02:50;5.13;;;1.60;;
14849;SDS011;7517;48.400;11.770;2023-12-29T08:05:17;1.50;;;1.40;;
14849;SDS011;7517;48.400;11.770;2023-12-29T08:07:46;1.67;;;1.40;;
14849;SDS011;7517;48.400;11.770;2023-12-29T08:10:14;1.50;;;1.40;;
14849;SDS011;7517;48.400;11.770;2023-12-29T08:12:43;1.70;;;1.60;;
14849;SDS011;7517;48.400;11.770;2023-12-29T08:15:12;1.50;;;1.40;;
14849;SDS011;7517;48.400;11.770;2023-12-29T08:17:40;1.67;;;1.57;;
14849;SDS011;7517;48.400;11.770;2023-12-29T08:20:09;1.50;;;1.40;;
14849;SDS011;7517;48.400;11.770;2023-12-29T08:22:38;1.83;;;1.47;;
14849;SDS011;7517;48.400;11.770;2023-12-29T08:25:08;1.40;;;1.30;;
14849;SDS011;7517;48.400;11.770;2023-12-29T08:27:36;1.70;;;1.50;;
14849;SDS011;7517;48.400;11.770;2023-12-29T08:30:06;1.23;;;1.00;;
14849;SDS011;7517;48.400;11.770;2023-12-29T08:32:36;1.43;;;1.20;;
14849;SDS011;7517;48.400;11.770;2023-12-29T08:35:03;1.17;;;1.07;;
14849;SDS011;7517;48.400;11.770;2023-12-29T08:37:31;1.20;;;1.10;;
14849;SDS011;7517;48.400;11.770;2023-12-29T08:39:58;1.20;;;1.10;;
14849;SDS011;7517;48.400;11.770;2023-12-29T08:42:27;1.20;;;1.10;;
14849;SDS011;7517;48.400;11.770;2023-12-29T08:44:54;0.80;;;0.80;;
14849;SDS011;7517;48.400;11.770;2023-12-29T08:47:21;1.83;;;1.00;;
14849;SDS011;7517;48.400;11.770;2023-12-29T08:49:48;1.03;;;0.97;;
14849;SDS011;7517;48.400;11.770;2023-12-29T08:52:16;1.13;;;1.03;;
14849;SDS011;7517;48.400;11.770;2023-12-29T08:54:43;1.10;;;1.00;;
14849;SDS011;7517;48.400;11.770;2023-12-29T08:57:10;1.10;;;1.00;;
14849;SDS011;7517;48.400;11.770;2023-12-29T08:59:39;1.00;;;0.90;;
14849;SDS011;7517;48.400;11.770;2023-12-29T09:02:06;0.90;;;0.90;;
14849;SDS011;7517;48.400;11.770;2023-12-29T09:04:33;1.20;;;0.70;;
14849;SDS011;7517;48.400;11.770;2023-12-29T09:07:00;1.00;;;0.90;;
14849;SDS011;7517;48.400;11.770;2023-12-29T09:09:29;2.20;;;1.00;;
14849;SDS011;7517;48.400;11.770;2023-12-29T09:11:56;0.80;;;0.80;;
14849;SDS011;7517;48.400;11.770;2023-12-29T09:14:23;1.00;;;0.90;;
14849;SDS011;7517;48.400;11.770;2023-12-29T09:16:52;1.77;;;1.00;;
14849;SDS011;7517;48.400;11.770;2023-12-29T09:19:19;2.40;;;0.90;;
14849;SDS011;7517;48.400;11.770;2023-12-29T09:21:46;0.70;;;0.70;;
14849;SDS011;7517;48.400;11.770;2023-12-29T09:24:13;2.10;;;0.90;;
14849;SDS011;7517;48.400;11.770;2023-12-29T09:26:41;1.20;;;0.90;;
14849;SDS011;7517;48.400;11.770;2023-12-29T09:29:08;1.03;;;1.03;;
14849;SDS011;7517;48.400;11.770;2023-12-29T09:31:35;0.80;;;0.80;;
14849;SDS011;7517;48.400;11.770;2023-12-29T09:34:03;0.80;;;0.80;;
14849;SDS011;7517;48.400;11.770;2023-12-29T09:36:31;0.70;;;0.70;;
14849;SDS011;7517;48.400;11.770;2023-12-29T09:38:58;0.90;;;0.90;;
14849;SDS011;7517;48.400;11.770;2023-12-29T09:41:25;1.40;;;1.20;;
14849;SDS011;7517;48.400;11.770;2023-12-29T09:43:56;0.80;;;0.80;;
14849;SDS011;7517;48.400;11.770;2023-12-29T09:46:27;1.80;;;1.00;;
14849;SDS011;7517;48.400;11.770;2023-12-29T09:48:59;1.23;;;1.00;;
14849;SDS011;7517;48.400;11.770;2023-12-29T09:51:34;0.90;;;0.90;;
14849;SDS011;7517;48.400;11.770;2023-12-29T09:54:03;0.80;;;0.80;;
14849;SDS011;7517;48.400;11.770;2023-12-29T09:56:33;0.70;;;0.70;;
14849;SDS011;7517;48.400;11.770;2023-12-29T09:59:01;0.70;;;0.70;;
14849;SDS011;7517;48.400;11.770;2023-12-29T10:01:30;1.10;;;1.00;;
14849;SDS011;7517;48.400;11.770;2023-12-29T10:03:59;0.90;;;0.80;;
14849;SDS011;7517;48.400;11.770;2023-12-29T10:06:29;1.07;;;0.97;;
14849;SDS011;7517;48.400;11.770;2023-12-29T10:09:05;1.10;;;1.00;;
14849;SDS011;7517;48.400;11.770;2023-12-29T10:11:38;1.50;;;1.23;;
14849;SDS011;7517;48.400;11.770;2023-12-29T10:14:11;1.10;;;0.80;;
14849;SDS011;7517;48.400;11.770;2023-12-29T10:16:50;0.80;;;0.80;;
14849;SDS011;7517;48.400;11.770;2023-12-29T10:19:30;1.50;;;0.67;;
14849;SDS011;7517;48.400;11.770;2023-12-29T10:22:08;1.57;;;0.70;;
14849;SDS011;7517;48.400;11.770;2023-12-29T10:24:44;0.70;;;0.63;;
14849;SDS011;7517;48.400;11.770;2023-12-29T10:27:12;0.80;;;0.80;;
14849;SDS011;7517;48.400;11.770;2023-12-29T10:29:39;1.03;;;0.73;;
14849;SDS011;7517;48.400;11.770;2023-12-29T10:32:06;0.70;;;0.70;;
14849;SDS011;7517;48.400;11.770;2023-12-29T10:34:34;1.57;;;1.00;;
14849;SDS011;7517;48.400;11.770;2023-12-29T10:37:02;1.47;;;1.00;;
14849;SDS011;7517;48.400;11.770;2023-12-29T10:39:35;0.60;;;0.60;;
14849;SDS011;7517;48.400;11.770;2023-12-29T10:42:03;2.37;;;0.70;;
14849;SDS011;7517;48.400;11.770;2023-12-29T10:44:33;0.60;;;0.60;;
14849;SDS011;7517;48.400;11.770;2023-12-29T10:47:07;0.70;;;0.70;;
14849;SDS011;7517;48.400;11.770;2023-12-29T10:49:35;0.67;;;0.67;;
14849;SDS011;7517;48.400;11.770;2023-12-29T10:52:10;1.40;;;0.67;;
14849;SDS011;7517;48.400;11.770;2023-12-29T10:54:40;1.67;;;0.70;;
14849;SDS011;7517;48.400;11.770;2023-12-29T10:57:08;1.00;;;0.90;;
14849;SDS011;7517;48.400;11.770;2023-12-29T10:59:37;1.03;;;0.87;;
14849;SDS011;7517;48.400;11.770;2023-12-29T11:02:05;1.40;;;1.30;;
14849;SDS011;7517;48.400;11.770;2023-12-29T11:04:33;0.90;;;0.90;;
14849;SDS011;7517;48.400;11.770;2023-12-29T11:07:00;1.37;;;1.00;;
14849;SDS011;7517;48.400;11.770;2023-12-29T11:09:28;0.80;;;0.80;;
14849;SDS011;7517;48.400;11.770;2023-12-29T11:12:00;0.70;;;0.70;;
14849;SDS011;7517;48.400;11.770;2023-12-29T11:14:28;0.73;;;0.70;;
14849;SDS011;7517;48.400;11.770;2023-12-29T11:16:56;0.70;;;0.63;;
14849;SDS011;7517;48.400;11.770;2023-12-29T11:19:25;0.77;;;0.77;;
14849;SDS011;7517;48.400;11.770;2023-12-29T11:21:54;0.80;;;0.80;;
14849;SDS011;7517;48.400;11.770;2023-12-29T11:24:22;0.60;;;0.53;;
14849;SDS011;7517;48.400;11.770;2023-12-29T11:26:50;0.67;;;0.60;;
14849;SDS011;7517;48.400;11.770;2023-12-29T11:29:20;0.90;;;0.90;;
14849;SDS011;7517;48.400;11.770;2023-12-29T11:31:49;1.00;;;0.90;;
14849;SDS011;7517;48.400;11.770;2023-12-29T11:34:19;1.10;;;0.70;;
14849;SDS011;7517;48.400;11.770;2023-12-29T11:37:07;1.20;;;1.10;;
14849;SDS011;7517;48.400;11.770;2023-12-29T11:40:00;0.87;;;0.87;;
14849;SDS011;7517;48.400;11.770;2023-12-29T11:42:41;0.80;;;0.80;;
14849;SDS011;7517;48.400;11.770;2023-12-29T11:45:28;3.07;;;0.70;;
14849;SDS011;7517;48.400;11.770;2023-12-29T11:47:59;0.90;;;0.80;;
14849;SDS011;7517;48.400;11.770;2023-12-29T11:50:28;0.67;;;0.67;;
14849;SDS011;7517;48.400;11.770;2023-12-29T11:52:57;1.07;;;0.97;;
14849;SDS011;7517;48.400;11.770;2023-12-29T11:55:28;0.70;;;0.70;;
14849;SDS011;7517;48.400;11.770;2023-12-29T11:57:56;0.90;;;0.80;;
14849;SDS011;7517;48.400;11.770;2023-12-29T12:03:18;1.23;;;0.90;;
14849;SDS011;7517;48.400;11.770;2023-12-29T12:05:52;0.83;;;0.60;;
14849;SDS011;7517;48.400;11.770;2023-12-29T12:08:29;1.33;;;0.90;;
14849;SDS011;7517;48.400;11.770;2023-12-29T12:10:58;0.93;;;0.90;;
14849;SDS011;7517;48.400;11.770;2023-12-29T12:14:09;1.30;;;0.70;;
14849;SDS011;7517;48.400;11.770;2023-12-29T12:16:48;1.87;;;0.93;;
14849;SDS011;7517;48.400;11.770;2023-12-29T12:19:19;2.20;;;1.10;;
14849;SDS011;7517;48.400;11.770;2023-12-29T12:21:49;0.70;;;0.70;;
14849;SDS011;7517;48.400;11.770;2023-12-29T12:24:21;1.23;;;0.63;;
14849;SDS011;7517;48.400;11.770;2023-12-29T12:26:48;0.70;;;0.70;;
14849;SDS011;7517;48.400;11.770;2023-12-29T12:29:15;1.20;;;0.70;;
14849;SDS011;7517;48.400;11.770;2023-12-29T12:31:55;1.07;;;0.80;;
14849;SDS011;7517;48.400;11.770;2023-12-29T12:34:23;0.63;;;0.63;;
14849;SDS011;7517;48.400;11.770;2023-12-29T12:36:51;0.60;;;0.60;;
14849;SDS011;7517;48.400;11.770;2023-12-29T12:39:21;0.60;;;0.60;;
14849;SDS011;7517;48.400;11.770;2023-12-29T12:41:49;0.67;;;0.67;;
14849;SDS011;7517;48.400;11.770;2023-12-29T12:44:16;0.60;;;0.60;;
14849;SDS011;7517;48.400;11.770;2023-12-29T12:46:48;0.80;;;0.80;;
14849;SDS011;7517;48.400;11.770;2023-12-29T12:49:23;1.00;;;0.90;;
14849;SDS011;7517;48.400;11.770;2023-12-29T12:51:51;0.97;;;0.97;;
14849;SDS011;7517;48.400;11.770;2023-12-29T12:54:20;0.60;;;0.53;;
14849;SDS011;7517;48.400;11.770;2023-12-29T12:56:47;0.63;;;0.63;;
14849;SDS011;7517;48.400;11.770;2023-12-29T12:59:16;0.60;;;0.60;;
14849;SDS011;7517;48.400;11.770;2023-12-29T13:01:43;0.50;;;0.50;;
14849;SDS011;7517;48.400;11.770;2023-12-29T13:04:11;0.60;;;0.60;;
14849;SDS011;7517;48.400;11.770;2023-12-29T13:06:41;0.80;;;0.77;;
14849;SDS011;7517;48.400;11.770;2023-12-29T13:09:09;1.67;;;0.70;;
14849;SDS011;7517;48.400;11.770;2023-12-29T13:11:37;0.70;;;0.70;;
14849;SDS011;7517;48.400;11.770;2023-12-29T13:14:05;0.80;;;0.70;;
14849;SDS011;7517;48.400;11.770;2023-12-29T13:16:33;0.60;;;0.60;;
14849;SDS011;7517;48.400;11.770;2023-12-29T13:19:16;0.90;;;0.70;;
14849;SDS011;7517;48.400;11.770;2023-12-29T13:21:49;0.73;;;0.73;;
14849;SDS011;7517;48.400;11.770;2023-12-29T13:24:20;0.77;;;0.77;;
14849;SDS011;7517;48.400;11.770;2023-12-29T13:26:47;0.70;;;0.70;;
14849;SDS011;7517;48.400;11.770;2023-12-29T13:29:18;0.60;;;0.60;;
14849;SDS011;7517;48.400;11.770;2023-12-29T13:31:49;0.50;;;0.50;;
14849;SDS011;7517;48.400;11.770;2023-12-29T13:34:20;0.80;;;0.80;;
14849;SDS011;7517;48.400;11.770;2023-12-29T13:37:00;0.83;;;0.73;;
14849;SDS011;7517;48.400;11.770;2023-12-29T13:39:35;1.00;;;0.90;;
14849;SDS011;7517;48.400;11.770;2023-12-29T13:42:07;0.70;;;0.70;;
14849;SDS011;7517;48.400;11.770;2023-12-29T13:44:38;0.73;;;0.67;;
14849;SDS011;7517;48.400;11.770;2023-12-29T13:47:09;0.80;;;0.80;;
14849;SDS011;7517;48.400;11.770;2023-12-29T13:49:38;0.80;;;0.80;;
14849;SDS011;7517;48.400;11.770;2023-12-29T13:52:07;1.23;;;1.13;;
14849;SDS011;7517;48.400;11.770;2023-12-29T13:54:40;1.40;;;1.07;;
14849;SDS011;7517;48.400;11.770;2023-12-29T13:57:08;1.10;;;1.00;;
14849;SDS011;7517;48.400;11.770;2023-12-29T13:59:35;0.93;;;0.93;;
14849;SDS011;7517;48.400;11.770;2023-12-29T14:02:18;1.40;;;1.17;;
14849;SDS011;7517;48.400;11.770;2023-12-29T14:05:09;1.10;;;1.00;;
14849;SDS011;7517;48.400;11.770;2023-12-29T14:07:44;2.23;;;1.00;;
14849;SDS011;7517;48.400;11.770;2023-12-29T14:10:19;0.70;;;0.70;;
14849;SDS011;7517;48.400;11.770;2023-12-29T14:12:49;1.00;;;0.90;;
14849;SDS011;7517;48.400;11.770;2023-12-29T14:15:16;1.40;;;1.10;;
14849;SDS011;7517;48.400;11.770;2023-12-29T14:17:43;0.87;;;0.80;;
14849;SDS011;7517;48.400;11.770;2023-12-29T14:20:11;1.30;;;1.07;;
14849;SDS011;7517;48.400;11.770;2023-12-29T14:23:02;5.50;;;1.47;;
14849;SDS011;7517;48.400;11.770;2023-12-29T14:25:30;1.17;;;1.00;;
14849;SDS011;7517;48.400;11.770;2023-12-29T14:28:00;1.17;;;0.70;;
14849;SDS011;7517;48.400;11.770;2023-12-29T14:30:28;0.93;;;0.80;;
14849;SDS011;7517;48.400;11.770;2023-12-29T14:32:56;0.87;;;0.87;;
14849;SDS011;7517;48.400;11.770;2023-12-29T14:35:24;0.83;;;0.80;;
14849;SDS011;7517;48.400;11.770;2023-12-29T14:37:51;0.90;;;0.60;;
14849;SDS011;7517;48.400;11.770;2023-12-29T14:40:20;0.90;;;0.90;;
14849;SDS011;7517;48.400;11.770;2023-12-29T14:42:47;1.00;;;0.90;;
14849;SDS011;7517;48.400;11.770;2023-12-29T14:45:14;0.80;;;0.80;;
14849;SDS011;7517;48.400;11.770;2023-12-29T14:47:41;1.07;;;0.83;;
14849;SDS011;7517;48.400;11.770;2023-12-29T14:50:10;1.30;;;1.20;;
14849;SDS011;7517;48.400;11.770;2023-12-29T14:52:38;0.83;;;0.83;;
14849;SDS011;7517;48.400;11.770;2023-12-29T14:55:05;1.33;;;1.10;;
14849;SDS011;7517;48.400;11.770;2023-12-29T14:57:44;1.10;;;1.00;;
14849;SDS011;7517;48.400;11.770;2023-12-29T15:00:12;0.80;;;0.70;;
14849;SDS011;7517;48.400;11.770;2023-12-29T15:02:41;0.70;;;0.70;;
14849;SDS011;7517;48.400;11.770;2023-12-29T15:05:09;1.60;;;1.00;;
14849;SDS011;7517;48.400;11.770;2023-12-29T15:07:36;2.63;;;1.00;;